Startpagina
METAR-TAF:

METAR-TAF

Vliegvelden :

Aéroport de Lille-Lesquin

Rijsel, Frankrijk

breedte: 50-34N, lengte: 003-06E, hoogte: 48 m

Actueel weer

Dit bericht is 24 minuten geleden gemaakt, om 05:00 UTC
Wind 2 kt uit het zuidwesten
Temperatuur 11°C
Vochtigheid 87%
Druk 1024 hPa
Zicht 10 km of meer
geen wolken onder 1500 m en geen cumulonimbus

METAR: LFQQ 240500Z AUTO 23002KT CAVOK 11/09 Q1024 NOSIG

Tijdstip: 07:24 (05:24 UTC)

Verwachting

Dit bericht is 6 uur en het 24 minuten geleden gemaakt, om 23:00 UTC
Verwachting geldig van 24 om 00 UTC tot 25 om 06 UTC
Wind 3 kt uit variabele richting
Zicht 10 km of meer
geen wolken onder 1500 m en geen cumulonimbus
Wijzigt naar
van 24 om 07 UTC tot 24 om 09 UTC
Wind 13 kt uit het noorden
Wijzigt naar
van 24 om 22 UTC tot 24 om 24 UTC
Wind 3 kt uit variabele richting

TAF: LFQQ 232300Z 2400/2506 VRB03KT CAVOK BECMG 2407/2409 36013KT BECMG 2422/2424 VRB03KT

Waarnemingen en weersverwachtingen van meer dan 4000 vliegvelden (METAR en TAF).

De beschikbare stations zijn de gele en rode punten op de kaart.

Ga met uw muis naar het station om de naam te zien.

Klik dan om waarnemingen en weersverwachtingen te zien.

kaart wijzigen: klik op de groene knoppen met een zwart kruis om in te zoomen, op de groene knop met een streepje om uit te zoomen of op de groene pijlen voor aangrenzende kaarten.


METAR-TAF: